Time;durP1;ratioP1;P1;durP2;ratioP2;P2;SDS_P1;SDS_P2;PMS_P1;PMS_P2;Temp;Humidity;BMP_temperature;BMP_pressure;BME280_temperature;BME280_humidity;BME280_pressure;Samples;Min_cycle;Max_cycle;Signal;HPM_P1;HPM_P2
2022/08/16 00:07:34;;;;;;;7.50;3.15;;;;;;;24.59;51.06;99578.00;18243368;32;20115;-56
2022/08/16 00:17:41;;;;;;;7.40;3.25;;;;;;;24.31;52.83;99579.19;18244014;32;20089;-56
2022/08/16 00:28:00;;;;;;;8.23;3.45;;;;;;;24.23;52.48;99596.59;18243340;32;20181;-56
2022/08/16 00:38:06;;;;;;;8.93;3.55;;;;;;;24.15;52.55;99593.62;18242427;32;20098;-56
2022/08/16 00:48:31;;;;;;;8.18;3.55;;;;;;;23.84;53.65;99595.81;18242810;32;20094;-56
2022/08/16 00:58:49;;;;;;;7.28;3.37;;;;;;;23.56;54.67;99595.06;18241503;32;20390;-56
2022/08/16 01:08:55;;;;;;;7.35;3.47;;;;;;;23.39;54.40;99613.06;18241438;32;20090;-55
2022/08/16 01:19:15;;;;;;;7.65;2.90;;;;;;;23.46;54.28;99607.34;18241006;32;20089;-55
2022/08/16 01:29:26;;;;;;;7.40;3.17;;;;;;;23.30;54.84;99620.84;18240699;32;20109;-56
2022/08/16 01:39:49;;;;;;;8.35;3.85;;;;;;;23.28;54.14;99612.97;18240913;32;20660;-55
2022/08/16 01:49:54;;;;;;;7.03;3.12;;;;;;;23.12;54.59;99605.13;18239534;32;20090;-56
2022/08/16 02:00:18;;;;;;;7.25;3.15;;;;;;;22.82;56.67;99607.06;18240283;32;20125;-55
2022/08/16 02:10:32;;;;;;;7.82;3.35;;;;;;;22.87;54.64;99607.63;18244636;32;20091;-55
2022/08/16 02:20:37;;;;;;;6.78;2.90;;;;;;;22.35;55.54;99611.87;18245690;32;20160;-55
2022/08/16 02:30:46;;;;;;;7.72;3.20;;;;;;;22.37;55.70;99614.41;18245382;32;20108;-55
2022/08/16 02:40:54;;;;;;;7.87;3.42;;;;;;;21.98;57.22;99608.88;18245099;32;20125;-55
2022/08/16 02:50:59;;;;;;;12.70;3.97;;;;;;;22.10;56.75;99608.09;18245151;32;20098;-55
2022/08/16 03:01:15;;;;;;;9.07;4.25;;;;;;;22.20;56.06;99603.06;18245818;32;20090;-55
2022/08/16 03:11:39;;;;;;;7.87;3.90;;;;;;;21.81;57.67;99612.56;18231479;32;20144;-55
2022/08/16 03:21:43;;;;;;;8.43;3.83;;;;;;;21.73;58.34;99621.91;18244077;32;20459;-55
2022/08/16 03:31:48;;;;;;;8.30;3.65;;;;;;;21.62;58.57;99627.81;18243921;32;20102;-55
2022/08/16 03:41:55;;;;;;;8.50;3.85;;;;;;;21.66;57.77;99641.78;18236984;32;212158;-55
2022/08/16 03:52:04;;;;;;;9.05;3.97;;;;;;;21.82;57.56;99635.56;18249306;32;20220;-55
2022/08/16 04:02:07;;;;;;;9.10;3.72;;;;;;;21.86;57.57;99653.00;18306691;32;20367;-55
2022/08/16 04:12:26;;;;;;;10.07;3.25;;;;;;;21.69;57.95;99665.50;18306235;32;20093;-55
2022/08/16 04:22:49;;;;;;;6.60;3.20;;;;;;;21.83;58.01;99664.66;18283095;32;20093;-55
2022/08/16 04:32:54;;;;;;;8.70;3.97;;;;;;;22.20;57.72;99658.91;18262648;32;20519;-55
2022/08/16 04:42:59;;;;;;;8.98;3.45;;;;;;;22.86;56.19;99664.47;18304933;32;20093;-55
2022/08/16 04:53:04;;;;;;;10.00;3.50;;;;;;;23.13;56.74;99671.56;18304291;32;20109;-55
2022/08/16 05:03:11;;;;;;;10.63;3.90;;;;;;;23.44;56.76;99667.84;18303973;32;20085;-56
2022/08/16 05:13:17;;;;;;;8.55;3.12;;;;;;;24.03;54.51;99667.31;18304334;32;20398;-55
2022/08/16 05:23:21;;;;;;;8.43;2.95;;;;;;;24.57;53.04;99654.62;18303459;32;20361;-55
2022/08/16 05:33:26;;;;;;;9.45;3.78;;;;;;;24.91;52.00;99660.19;18287607;32;20113;-55
2022/08/16 05:43:30;;;;;;;6.53;3.03;;;;;;;25.29;50.49;99684.97;18299539;32;20692;-55
2022/08/16 05:53:47;;;;;;;8.90;3.65;;;;;;;25.62;49.80;99685.22;18299464;32;20090;-56
2022/08/16 06:03:51;;;;;;;9.15;3.30;;;;;;;25.97;48.67;99681.63;18324587;32;20113;-56
2022/08/16 06:13:59;;;;;;;7.93;3.53;;;;;;;26.35;46.92;99674.22;18299835;32;20101;-56
2022/08/16 06:24:04;;;;;;;6.35;2.90;;;;;;;26.46;46.05;99681.37;18298220;32;20491;-56
2022/08/16 06:34:29;;;;;;;7.47;2.92;;;;;;;26.77;45.36;99705.66;18289162;32;20169;-56
2022/08/16 06:44:52;;;;;;;6.82;3.40;;;;;;;27.44;44.31;99692.16;18281357;32;20102;-57
2022/08/16 06:54:57;;;;;;;7.82;3.55;;;;;;;28.02;42.64;99687.28;18251611;32;20486;-56
2022/08/16 07:05:00;;;;;;;6.78;3.55;;;;;;;28.00;42.28;99686.56;18307664;32;20504;-56
2022/08/16 07:15:06;;;;;;;6.07;2.95;;;;;;;28.60;44.03;99699.22;18308203;32;20172;-56
2022/08/16 07:25:19;;;;;;;9.55;3.25;;;;;;;28.64;41.55;99682.72;18306348;32;20094;-56
2022/08/16 07:35:26;;;;;;;6.43;2.92;;;;;;;30.36;39.65;99696.56;18307015;32;20468;-56
2022/08/16 07:45:30;;;;;;;8.95;3.65;;;;;;;31.37;35.79;99686.69;18306643;32;20089;-56
2022/08/16 07:55:37;;;;;;;5.90;2.92;;;;;;;31.54;35.61;99691.19;18306425;32;20102;-56
2022/08/16 08:05:50;;;;;;;6.90;2.87;;;;;;;31.66;35.16;99694.47;18305740;32;20422;-56
2022/08/16 08:15:55;;;;;;;8.30;3.03;;;;;;;32.67;33.82;99675.88;18305902;32;20493;-56
2022/08/16 08:25:59;;;;;;;8.00;3.05;;;;;;;32.04;33.11;99679.84;18305922;32;20093;-56
2022/08/16 08:36:10;;;;;;;6.97;2.50;;;;;;;32.56;33.79;99670.78;18305669;32;20472;-56
2022/08/16 08:46:24;;;;;;;5.10;2.55;;;;;;;33.42;30.28;99667.00;18304475;32;20094;-56
2022/08/16 08:56:32;;;;;;;4.15;2.10;;;;;;;33.85;26.57;99666.78;18304062;32;20359;-56
2022/08/16 09:06:37;;;;;;;5.07;2.00;;;;;;;34.45;24.86;99661.81;18304671;32;20458;-56
2022/08/16 09:16:47;;;;;;;4.17;2.00;;;;;;;34.66;24.10;99658.50;18299724;32;20381;-56
2022/08/16 09:27:07;;;;;;;5.62;1.80;;;;;;;35.24;22.79;99649.94;18303049;32;20185;-56
2022/08/16 09:37:18;;;;;;;4.82;2.30;;;;;;;35.72;22.70;99642.56;18300620;32;20094;-56
2022/08/16 09:47:36;;;;;;;4.93;2.17;;;;;;;35.81;22.76;99638.72;18302587;32;20371;-56
2022/08/16 09:58:01;;;;;;;3.78;2.05;;;;;;;35.02;24.82;99638.06;18302656;32;20086;-56
2022/08/16 10:08:08;;;;;;;5.95;2.72;;;;;;;34.98;23.93;99648.44;18302022;32;20152;-56
2022/08/16 10:18:31;;;;;;;5.22;2.55;;;;;;;34.98;24.73;99639.47;18301252;32;20094;-56
2022/08/16 10:28:55;;;;;;;5.28;2.55;;;;;;;35.20;25.04;99634.22;18306187;32;20133;-56
2022/08/16 10:39:00;;;;;;;6.05;2.60;;;;;;;35.65;23.73;99624.28;18307892;32;20457;-56
2022/08/16 10:49:04;;;;;;;5.70;2.83;;;;;;;36.67;23.13;99614.69;18305557;32;20442;-56
2022/08/16 10:59:09;;;;;;;16.00;3.28;;;;;;;36.56;22.36;99611.44;18306901;32;20097;-56
2022/08/16 11:09:33;;;;;;;4.53;2.42;;;;;;;36.83;21.74;99600.81;18331572;32;20119;-56
2022/08/16 11:19:48;;;;;;;5.35;2.47;;;;;;;37.96;20.04;99599.09;18335512;32;20151;-57
2022/08/16 11:30:14;;;;;;;5.57;2.45;;;;;;;37.44;20.37;99609.47;18312289;32;20089;-56
2022/08/16 11:40:24;;;;;;;6.68;2.53;;;;;;;36.35;21.98;99615.81;18355802;32;20089;-57
2022/08/16 11:50:35;;;;;;;4.95;2.10;;;;;;;35.37;24.37;99621.34;18370422;32;20116;-56
2022/08/16 12:00:42;;;;;;;4.20;2.53;;;;;;;36.24;22.80;99616.31;18369975;32;20473;-56
2022/08/16 12:10:55;;;;;;;5.15;2.40;;;;;;;36.79;22.13;99613.97;18356103;32;20122;-56
2022/08/16 12:21:05;;;;;;;4.03;2.25;;;;;;;36.86;21.89;99605.03;18369857;32;20131;-56
2022/08/16 12:31:12;;;;;;;4.23;2.20;;;;;;;38.19;20.80;99600.66;18319732;32;20090;-56
2022/08/16 12:41:17;;;;;;;5.40;2.50;;;;;;;38.90;19.34;99594.94;18305004;32;20151;-57
2022/08/16 12:51:30;;;;;;;4.00;2.15;;;;;;;38.29;20.35;99584.75;18304785;32;20187;-56
2022/08/16 13:01:58;;;;;;;5.43;2.53;;;;;;;37.72;19.81;99582.22;18306030;32;20101;-56
2022/08/16 13:12:14;;;;;;;4.65;2.33;;;;;;;37.75;20.84;99570.94;18304822;32;20093;-56
2022/08/16 13:22:19;;;;;;;3.90;2.10;;;;;;;38.73;19.80;99562.62;18304393;32;20086;-56
2022/08/16 13:32:22;;;;;;;5.30;2.03;;;;;;;37.30;21.12;99576.72;18304207;32;20093;-56
2022/08/16 13:42:44;;;;;;;3.80;2.00;;;;;;;36.95;21.98;99562.22;18289210;32;20680;-56
2022/08/16 13:52:48;;;;;;;4.20;2.40;;;;;;;36.77;21.32;99556.22;18303188;32;20093;-56
2022/08/16 14:02:53;;;;;;;5.32;2.30;;;;;;;36.93;21.52;99538.78;18301398;32;20090;-56
2022/08/16 14:13:01;;;;;;;5.20;2.10;;;;;;;36.34;23.25;99539.91;18301832;32;20108;-56
2022/08/16 14:23:06;;;;;;;6.12;2.60;;;;;;;35.66;24.27;99551.84;18300982;32;20156;-56
2022/08/16 14:33:10;;;;;;;7.15;2.40;;;;;;;35.19;25.14;99553.88;18286616;32;20431;-56
2022/08/16 14:43:15;;;;;;;5.82;2.12;;;;;;;34.85;27.07;99562.28;18299699;32;20142;-56
2022/08/16 14:53:19;;;;;;;4.50;2.10;;;;;;;34.21;27.47;99559.87;18300626;32;20112;-56
2022/08/16 15:03:24;;;;;;;5.90;2.20;;;;;;;34.47;27.16;99572.25;18285085;32;20439;-57
2022/08/16 15:13:28;;;;;;;10.52;3.10;;;;;;;34.94;24.18;99559.50;18288314;32;20127;-57
2022/08/16 15:23:33;;;;;;;6.07;2.78;;;;;;;35.06;26.13;99576.22;18308228;32;20108;-56
2022/08/16 15:33:45;;;;;;;5.03;2.30;;;;;;;33.14;30.25;99588.97;18293535;32;20125;-56
2022/08/16 15:44:00;;;;;;;6.50;2.87;;;;;;;33.67;30.10;99583.09;18306893;32;20146;-56
2022/08/16 15:54:13;;;;;;;4.87;2.70;;;;;;;33.89;29.59;99590.47;18314887;32;20119;-57
2022/08/16 16:04:33;;;;;;;5.55;2.47;;;;;;;32.88;30.69;99596.22;18354041;32;20105;-56
2022/08/16 16:14:37;;;;;;;9.38;3.00;;;;;;;33.55;29.10;99597.00;18369852;32;20183;-56
2022/08/16 16:24:43;;;;;;;8.07;3.45;;;;;;;33.17;38.08;99621.06;18342520;32;20086;-56
2022/08/16 16:34:46;;;;;;;6.80;2.97;;;;;;;30.59;51.65;99648.50;18308353;32;20148;-56
2022/08/16 16:44:51;;;;;;;7.35;3.17;;;;;;;29.14;55.78;99675.59;18330106;32;20183;-56
2022/08/16 16:55:01;;;;;;;8.32;4.07;;;;;;;28.56;58.28;99695.13;18349983;32;20120;-56
2022/08/16 17:05:08;;;;;;;9.07;4.22;;;;;;;28.41;63.21;99706.28;18238653;32;20114;-56
2022/08/16 17:15:12;;;;;;;9.93;3.50;;;;;;;28.19;63.46;99716.19;18241489;32;20106;-56
2022/08/16 17:25:20;;;;;;;9.90;4.15;;;;;;;27.78;61.31;99709.91;18237690;32;20094;-56
2022/08/16 17:35:27;;;;;;;9.13;3.87;;;;;;;27.56;65.72;99744.75;18223608;32;20089;-56
2022/08/16 17:45:39;;;;;;;8.93;3.80;;;;;;;27.55;65.30;99756.44;18236448;32;20192;-56
2022/08/16 17:55:45;;;;;;;8.10;3.00;;;;;;;27.16;64.03;99780.19;18236530;32;20089;-56
2022/08/16 18:05:51;;;;;;;8.57;2.92;;;;;;;26.86;57.76;99741.53;18235948;32;20419;-56
2022/08/16 18:15:55;;;;;;;7.78;3.45;;;;;;;26.15;60.71;99759.53;18281684;32;20097;-56
2022/08/16 18:26:01;;;;;;;6.85;2.80;;;;;;;25.97;63.25;99767.19;18303824;32;20094;-56
2022/08/16 18:36:05;;;;;;;6.78;2.95;;;;;;;25.72;64.40;99768.22;18303330;32;20453;-56
2022/08/16 18:46:24;;;;;;;6.80;2.90;;;;;;;25.61;64.90;99767.22;18311888;32;20137;-56
2022/08/16 18:56:27;;;;;;;9.95;3.33;;;;;;;25.35;65.36;99774.47;18306606;32;20129;-56
2022/08/16 19:06:53;;;;;;;7.70;3.40;;;;;;;25.14;64.68;99771.59;18291109;32;20097;-56
2022/08/16 19:16:56;;;;;;;8.88;3.30;;;;;;;24.83;66.73;99789.81;18303717;32;20124;-56
2022/08/16 19:27:01;;;;;;;7.60;3.28;;;;;;;24.81;65.44;99789.97;18304318;32;20094;-56
2022/08/16 19:37:06;;;;;;;9.95;3.83;;;;;;;24.73;66.19;99802.97;18290062;32;20167;-55
2022/08/16 19:47:13;;;;;;;7.35;3.53;;;;;;;24.58;66.96;99810.25;18329025;32;20137;-56
2022/08/16 19:57:17;;;;;;;8.70;3.40;;;;;;;24.55;67.29;99805.09;18318342;32;20455;-56
2022/08/16 20:07:21;;;;;;;9.70;3.30;;;;;;;24.53;66.52;99803.41;18339682;32;20385;-56
2022/08/16 20:17:34;;;;;;;8.23;3.50;;;;;;;24.33;66.40;99809.28;18316328;32;20102;-56
2022/08/16 20:27:40;;;;;;;6.62;3.10;;;;;;;24.11;66.71;99819.59;18357102;32;20163;-56
2022/08/16 20:37:46;;;;;;;8.45;3.60;;;;;;;23.97;67.32;99828.50;18366137;32;20471;-56
2022/08/16 20:47:51;;;;;;;9.13;3.53;;;;;;;23.90;67.77;99835.25;18338374;32;20101;-56
2022/08/16 20:57:56;;;;;;;8.10;3.60;;;;;;;23.77;67.28;99831.69;18331568;32;20089;-56
2022/08/16 21:08:04;;;;;;;8.23;3.85;;;;;;;23.65;67.00;99844.84;18350403;32;20155;-56
2022/08/16 21:18:27;;;;;;;7.85;3.87;;;;;;;23.70;66.87;99844.56;18290058;32;20439;-56
2022/08/16 21:28:32;;;;;;;8.30;3.37;;;;;;;23.46;67.79;99849.69;18241242;32;20095;-56
2022/08/16 21:38:44;;;;;;;7.95;3.67;;;;;;;23.14;68.83;99862.28;18243618;32;20108;-56
2022/08/16 21:48:48;;;;;;;7.90;3.30;;;;;;;23.20;67.62;99868.16;18260428;32;20462;-56
2022/08/16 21:58:52;;;;;;;8.00;3.45;;;;;;;23.02;68.36;99868.38;18283544;32;20427;-56
2022/08/16 22:08:57;;;;;;;8.80;3.50;;;;;;;23.17;67.96;99873.69;18238962;32;20108;-55
2022/08/16 22:19:00;;;;;;;8.25;3.60;;;;;;;22.98;67.67;99872.19;18238541;32;20098;-56
2022/08/16 22:29:07;;;;;;;7.60;3.95;;;;;;;22.89;67.82;99868.28;18245564;32;20406;-56
2022/08/16 22:39:12;;;;;;;8.57;3.65;;;;;;;22.87;67.79;99870.19;18245674;32;20105;-56
2022/08/16 22:49:17;;;;;;;8.05;3.55;;;;;;;22.63;67.86;99873.44;18230940;32;20116;-56
2022/08/16 22:59:20;;;;;;;8.70;3.95;;;;;;;22.68;68.02;99870.50;18245167;32;20085;-56
2022/08/16 23:09:24;;;;;;;8.65;3.30;;;;;;;22.75;67.37;99882.44;18244834;32;20457;-56
2022/08/16 23:19:28;;;;;;;8.50;3.65;;;;;;;22.54;67.70;99866.88;18244504;32;20159;-56
2022/08/16 23:29:32;;;;;;;7.45;3.60;;;;;;;22.32;68.11;99856.63;18244400;32;20104;-55
2022/08/16 23:39:36;;;;;;;8.93;3.95;;;;;;;22.30;67.91;99862.06;18245043;32;20402;-55
2022/08/16 23:49:40;;;;;;;7.32;3.35;;;;;;;22.29;68.18;99859.50;18243573;32;20461;-55
